sensor_id;sensor_type;location;lat;lon;timestamp;P1;durP1;ratioP1;P2;durP2;ratioP2
16199;SDS011;8207;52.494;4.654;2023-08-24T00:01:12;8.75;;;3.97;;
16199;SDS011;8207;52.494;4.654;2023-08-24T00:03:38;8.18;;;3.60;;
16199;SDS011;8207;52.494;4.654;2023-08-24T00:06:03;10.52;;;4.45;;
16199;SDS011;8207;52.494;4.654;2023-08-24T00:08:28;8.50;;;4.93;;
16199;SDS011;8207;52.494;4.654;2023-08-24T00:10:53;8.63;;;4.03;;
16199;SDS011;8207;52.494;4.654;2023-08-24T00:13:19;8.00;;;4.50;;
16199;SDS011;8207;52.494;4.654;2023-08-24T00:15:44;5.43;;;3.50;;
16199;SDS011;8207;52.494;4.654;2023-08-24T00:18:10;6.50;;;4.05;;
16199;SDS011;8207;52.494;4.654;2023-08-24T00:20:38;9.63;;;4.53;;
16199;SDS011;8207;52.494;4.654;2023-08-24T00:23:03;10.38;;;5.35;;
16199;SDS011;8207;52.494;4.654;2023-08-24T00:25:32;9.75;;;5.65;;
16199;SDS011;8207;52.494;4.654;2023-08-24T00:27:57;8.35;;;5.10;;
16199;SDS011;8207;52.494;4.654;2023-08-24T00:30:22;7.67;;;4.00;;
16199;SDS011;8207;52.494;4.654;2023-08-24T00:32:48;7.82;;;4.03;;
16199;SDS011;8207;52.494;4.654;2023-08-24T00:35:13;5.95;;;3.58;;
16199;SDS011;8207;52.494;4.654;2023-08-24T00:37:38;9.77;;;5.27;;
16199;SDS011;8207;52.494;4.654;2023-08-24T00:40:04;11.18;;;5.70;;
16199;SDS011;8207;52.494;4.654;2023-08-24T00:42:30;5.72;;;3.85;;
16199;SDS011;8207;52.494;4.654;2023-08-24T00:44:56;5.13;;;3.13;;
16199;SDS011;8207;52.494;4.654;2023-08-24T00:47:22;5.72;;;3.80;;
16199;SDS011;8207;52.494;4.654;2023-08-24T00:49:47;4.13;;;2.90;;
16199;SDS011;8207;52.494;4.654;2023-08-24T00:52:12;5.00;;;2.28;;
16199;SDS011;8207;52.494;4.654;2023-08-24T00:54:38;6.95;;;2.60;;
16199;SDS011;8207;52.494;4.654;2023-08-24T00:57:04;3.47;;;2.70;;
16199;SDS011;8207;52.494;4.654;2023-08-24T00:59:29;4.28;;;2.35;;
16199;SDS011;8207;52.494;4.654;2023-08-24T01:01:55;4.25;;;2.47;;
16199;SDS011;8207;52.494;4.654;2023-08-24T01:04:21;4.32;;;2.20;;
16199;SDS011;8207;52.494;4.654;2023-08-24T01:06:46;4.82;;;2.53;;
16199;SDS011;8207;52.494;4.654;2023-08-24T01:09:12;5.20;;;3.27;;
16199;SDS011;8207;52.494;4.654;2023-08-24T01:12:20;6.03;;;4.05;;
16199;SDS011;8207;52.494;4.654;2023-08-24T01:14:30;6.32;;;3.10;;
16199;SDS011;8207;52.494;4.654;2023-08-24T01:17:01;6.78;;;3.55;;
16199;SDS011;8207;52.494;4.654;2023-08-24T01:22:12;5.97;;;3.20;;
16199;SDS011;8207;52.494;4.654;2023-08-24T01:24:45;6.47;;;4.43;;
16199;SDS011;8207;52.494;4.654;2023-08-24T01:27:11;6.78;;;3.17;;
16199;SDS011;8207;52.494;4.654;2023-08-24T01:29:37;4.00;;;2.47;;
16199;SDS011;8207;52.494;4.654;2023-08-24T01:32:05;4.93;;;2.80;;
16199;SDS011;8207;52.494;4.654;2023-08-24T01:34:30;4.32;;;2.65;;
16199;SDS011;8207;52.494;4.654;2023-08-24T01:36:55;5.88;;;2.80;;
16199;SDS011;8207;52.494;4.654;2023-08-24T01:39:24;6.38;;;3.67;;
16199;SDS011;8207;52.494;4.654;2023-08-24T01:41:53;5.47;;;3.17;;
16199;SDS011;8207;52.494;4.654;2023-08-24T01:44:20;6.13;;;2.97;;
16199;SDS011;8207;52.494;4.654;2023-08-24T01:46:46;4.68;;;2.70;;
16199;SDS011;8207;52.494;4.654;2023-08-24T01:49:13;7.13;;;2.97;;
16199;SDS011;8207;52.494;4.654;2023-08-24T01:51:39;6.50;;;2.70;;
16199;SDS011;8207;52.494;4.654;2023-08-24T01:54:04;5.32;;;2.80;;
16199;SDS011;8207;52.494;4.654;2023-08-24T01:56:30;4.78;;;2.50;;
16199;SDS011;8207;52.494;4.654;2023-08-24T01:58:55;5.63;;;2.87;;
16199;SDS011;8207;52.494;4.654;2023-08-24T02:01:22;8.85;;;3.38;;
16199;SDS011;8207;52.494;4.654;2023-08-24T02:03:47;5.68;;;2.72;;
16199;SDS011;8207;52.494;4.654;2023-08-24T02:06:12;5.72;;;2.90;;
16199;SDS011;8207;52.494;4.654;2023-08-24T02:08:37;5.15;;;2.33;;
16199;SDS011;8207;52.494;4.654;2023-08-24T02:11:03;4.25;;;2.40;;
16199;SDS011;8207;52.494;4.654;2023-08-24T02:13:28;4.10;;;2.20;;
16199;SDS011;8207;52.494;4.654;2023-08-24T02:16:03;5.20;;;2.70;;
16199;SDS011;8207;52.494;4.654;2023-08-24T02:18:28;3.47;;;2.17;;
16199;SDS011;8207;52.494;4.654;2023-08-24T02:20:53;4.25;;;2.35;;
16199;SDS011;8207;52.494;4.654;2023-08-24T02:23:19;3.37;;;2.07;;
16199;SDS011;8207;52.494;4.654;2023-08-24T02:25:44;4.05;;;2.40;;
16199;SDS011;8207;52.494;4.654;2023-08-24T02:28:09;3.03;;;1.90;;
16199;SDS011;8207;52.494;4.654;2023-08-24T02:30:37;3.20;;;1.80;;
16199;SDS011;8207;52.494;4.654;2023-08-24T02:33:02;3.38;;;1.92;;
16199;SDS011;8207;52.494;4.654;2023-08-24T02:35:27;3.33;;;1.90;;
16199;SDS011;8207;52.494;4.654;2023-08-24T02:37:52;6.97;;;2.97;;
16199;SDS011;8207;52.494;4.654;2023-08-24T02:40:20;6.88;;;2.83;;
16199;SDS011;8207;52.494;4.654;2023-08-24T02:42:45;6.13;;;2.30;;
16199;SDS011;8207;52.494;4.654;2023-08-24T02:45:10;4.40;;;2.55;;
16199;SDS011;8207;52.494;4.654;2023-08-24T02:47:35;8.98;;;3.60;;
16199;SDS011;8207;52.494;4.654;2023-08-24T02:50:01;8.25;;;2.90;;
16199;SDS011;8207;52.494;4.654;2023-08-24T02:52:27;3.90;;;2.20;;
16199;SDS011;8207;52.494;4.654;2023-08-24T02:54:52;4.03;;;2.07;;
16199;SDS011;8207;52.494;4.654;2023-08-24T02:57:17;4.22;;;2.25;;
16199;SDS011;8207;52.494;4.654;2023-08-24T02:59:42;5.22;;;2.80;;
16199;SDS011;8207;52.494;4.654;2023-08-24T03:02:09;5.28;;;2.50;;
16199;SDS011;8207;52.494;4.654;2023-08-24T03:04:34;5.30;;;3.08;;
16199;SDS011;8207;52.494;4.654;2023-08-24T03:07:00;6.67;;;2.50;;
16199;SDS011;8207;52.494;4.654;2023-08-24T03:09:25;9.80;;;3.97;;
16199;SDS011;8207;52.494;4.654;2023-08-24T03:11:50;7.45;;;3.00;;
16199;SDS011;8207;52.494;4.654;2023-08-24T03:14:15;7.43;;;2.85;;
16199;SDS011;8207;52.494;4.654;2023-08-24T03:16:41;5.20;;;2.42;;
16199;SDS011;8207;52.494;4.654;2023-08-24T03:19:06;6.57;;;3.13;;
16199;SDS011;8207;52.494;4.654;2023-08-24T03:21:32;7.90;;;4.25;;
16199;SDS011;8207;52.494;4.654;2023-08-24T03:23:57;4.10;;;2.87;;
16199;SDS011;8207;52.494;4.654;2023-08-24T03:26:22;5.53;;;3.22;;
16199;SDS011;8207;52.494;4.654;2023-08-24T03:28:48;5.75;;;3.35;;
16199;SDS011;8207;52.494;4.654;2023-08-24T03:31:14;5.28;;;3.13;;
16199;SDS011;8207;52.494;4.654;2023-08-24T03:33:39;7.07;;;3.55;;
16199;SDS011;8207;52.494;4.654;2023-08-24T03:36:04;5.20;;;2.57;;
16199;SDS011;8207;52.494;4.654;2023-08-24T03:38:29;5.18;;;3.05;;
16199;SDS011;8207;52.494;4.654;2023-08-24T03:41:01;5.40;;;3.00;;
16199;SDS011;8207;52.494;4.654;2023-08-24T03:43:27;9.75;;;3.80;;
16199;SDS011;8207;52.494;4.654;2023-08-24T03:45:52;5.87;;;3.37;;
16199;SDS011;8207;52.494;4.654;2023-08-24T03:48:17;6.75;;;3.72;;
16199;SDS011;8207;52.494;4.654;2023-08-24T03:50:43;5.72;;;3.30;;
16199;SDS011;8207;52.494;4.654;2023-08-24T03:53:08;4.95;;;2.90;;
16199;SDS011;8207;52.494;4.654;2023-08-24T03:55:34;5.50;;;3.17;;
16199;SDS011;8207;52.494;4.654;2023-08-24T03:57:59;3.47;;;2.35;;
16199;SDS011;8207;52.494;4.654;2023-08-24T04:00:25;4.57;;;3.23;;
16199;SDS011;8207;52.494;4.654;2023-08-24T04:02:51;3.80;;;2.60;;
16199;SDS011;8207;52.494;4.654;2023-08-24T04:05:16;4.32;;;2.85;;
16199;SDS011;8207;52.494;4.654;2023-08-24T04:07:41;8.07;;;4.72;;
16199;SDS011;8207;52.494;4.654;2023-08-24T04:10:07;6.57;;;3.90;;
16199;SDS011;8207;52.494;4.654;2023-08-24T04:12:33;5.05;;;3.22;;
16199;SDS011;8207;52.494;4.654;2023-08-24T04:14:58;3.78;;;2.42;;
16199;SDS011;8207;52.494;4.654;2023-08-24T04:17:24;3.53;;;2.70;;
16199;SDS011;8207;52.494;4.654;2023-08-24T04:19:49;7.22;;;4.30;;
16199;SDS011;8207;52.494;4.654;2023-08-24T04:22:15;3.70;;;2.67;;
16199;SDS011;8207;52.494;4.654;2023-08-24T04:24:40;5.78;;;3.08;;
16199;SDS011;8207;52.494;4.654;2023-08-24T04:27:05;6.80;;;3.25;;
16199;SDS011;8207;52.494;4.654;2023-08-24T04:29:31;6.55;;;3.70;;
16199;SDS011;8207;52.494;4.654;2023-08-24T04:31:56;8.98;;;4.68;;
16199;SDS011;8207;52.494;4.654;2023-08-24T04:34:21;7.23;;;3.83;;
16199;SDS011;8207;52.494;4.654;2023-08-24T04:36:47;5.38;;;3.50;;
16199;SDS011;8207;52.494;4.654;2023-08-24T04:39:12;5.28;;;3.75;;
16199;SDS011;8207;52.494;4.654;2023-08-24T04:41:37;4.78;;;3.40;;
16199;SDS011;8207;52.494;4.654;2023-08-24T04:44:02;5.13;;;3.33;;
16199;SDS011;8207;52.494;4.654;2023-08-24T04:46:33;4.85;;;3.75;;
16199;SDS011;8207;52.494;4.654;2023-08-24T04:48:58;4.65;;;3.22;;
16199;SDS011;8207;52.494;4.654;2023-08-24T04:51:23;7.65;;;3.60;;
16199;SDS011;8207;52.494;4.654;2023-08-24T04:53:48;8.03;;;4.77;;
16199;SDS011;8207;52.494;4.654;2023-08-24T04:56:14;8.53;;;5.30;;
16199;SDS011;8207;52.494;4.654;2023-08-24T04:58:39;10.43;;;6.18;;
16199;SDS011;8207;52.494;4.654;2023-08-24T05:01:05;9.52;;;5.53;;
16199;SDS011;8207;52.494;4.654;2023-08-24T05:03:30;6.33;;;4.40;;
16199;SDS011;8207;52.494;4.654;2023-08-24T05:05:55;7.50;;;5.17;;
16199;SDS011;8207;52.494;4.654;2023-08-24T05:08:20;12.30;;;6.97;;
16199;SDS011;8207;52.494;4.654;2023-08-24T05:10:45;9.20;;;5.55;;
16199;SDS011;8207;52.494;4.654;2023-08-24T05:13:11;10.35;;;6.03;;
16199;SDS011;8207;52.494;4.654;2023-08-24T05:15:36;8.15;;;5.20;;
16199;SDS011;8207;52.494;4.654;2023-08-24T05:18:02;11.10;;;6.35;;
16199;SDS011;8207;52.494;4.654;2023-08-24T05:20:27;13.40;;;7.32;;
16199;SDS011;8207;52.494;4.654;2023-08-24T05:22:52;8.75;;;5.43;;
16199;SDS011;8207;52.494;4.654;2023-08-24T05:25:20;9.18;;;5.50;;
16199;SDS011;8207;52.494;4.654;2023-08-24T05:27:45;10.20;;;5.65;;
16199;SDS011;8207;52.494;4.654;2023-08-24T05:30:10;12.60;;;6.97;;
16199;SDS011;8207;52.494;4.654;2023-08-24T05:32:36;11.63;;;7.28;;
16199;SDS011;8207;52.494;4.654;2023-08-24T05:35:07;10.48;;;7.13;;
16199;SDS011;8207;52.494;4.654;2023-08-24T05:37:33;10.32;;;6.90;;
16199;SDS011;8207;52.494;4.654;2023-08-24T05:39:59;9.77;;;5.88;;
16199;SDS011;8207;52.494;4.654;2023-08-24T05:42:24;9.13;;;4.78;;
16199;SDS011;8207;52.494;4.654;2023-08-24T05:44:49;9.55;;;6.22;;
16199;SDS011;8207;52.494;4.654;2023-08-24T05:47:15;10.88;;;6.88;;
16199;SDS011;8207;52.494;4.654;2023-08-24T05:49:40;9.02;;;5.88;;
16199;SDS011;8207;52.494;4.654;2023-08-24T05:52:05;9.68;;;6.05;;
16199;SDS011;8207;52.494;4.654;2023-08-24T05:54:30;14.55;;;8.73;;
16199;SDS011;8207;52.494;4.654;2023-08-24T05:56:56;12.68;;;8.18;;
16199;SDS011;8207;52.494;4.654;2023-08-24T05:59:25;12.52;;;7.78;;
16199;SDS011;8207;52.494;4.654;2023-08-24T06:01:50;13.03;;;6.90;;
16199;SDS011;8207;52.494;4.654;2023-08-24T06:04:15;12.65;;;7.38;;
16199;SDS011;8207;52.494;4.654;2023-08-24T06:06:41;11.43;;;7.53;;
16199;SDS011;8207;52.494;4.654;2023-08-24T06:09:06;13.55;;;8.68;;
16199;SDS011;8207;52.494;4.654;2023-08-24T06:11:34;13.00;;;7.80;;
16199;SDS011;8207;52.494;4.654;2023-08-24T06:14:00;15.18;;;7.50;;
16199;SDS011;8207;52.494;4.654;2023-08-24T06:16:27;11.65;;;7.07;;
16199;SDS011;8207;52.494;4.654;2023-08-24T06:18:52;11.35;;;5.82;;
16199;SDS011;8207;52.494;4.654;2023-08-24T06:21:17;14.70;;;7.40;;
16199;SDS011;8207;52.494;4.654;2023-08-24T06:23:43;10.52;;;6.85;;
16199;SDS011;8207;52.494;4.654;2023-08-24T06:26:09;10.25;;;6.45;;
16199;SDS011;8207;52.494;4.654;2023-08-24T06:28:35;11.15;;;6.97;;
16199;SDS011;8207;52.494;4.654;2023-08-24T06:31:00;11.95;;;7.43;;
16199;SDS011;8207;52.494;4.654;2023-08-24T06:33:29;12.18;;;6.93;;
16199;SDS011;8207;52.494;4.654;2023-08-24T06:35:55;9.95;;;6.10;;
16199;SDS011;8207;52.494;4.654;2023-08-24T06:38:21;11.55;;;7.00;;
16199;SDS011;8207;52.494;4.654;2023-08-24T06:40:46;10.02;;;6.10;;
16199;SDS011;8207;52.494;4.654;2023-08-24T06:43:11;9.43;;;5.97;;
16199;SDS011;8207;52.494;4.654;2023-08-24T06:45:36;9.43;;;5.73;;
16199;SDS011;8207;52.494;4.654;2023-08-24T06:48:02;9.15;;;4.95;;
16199;SDS011;8207;52.494;4.654;2023-08-24T06:50:28;9.50;;;5.72;;
16199;SDS011;8207;52.494;4.654;2023-08-24T06:52:53;9.93;;;6.07;;
16199;SDS011;8207;52.494;4.654;2023-08-24T06:55:18;10.23;;;6.43;;
16199;SDS011;8207;52.494;4.654;2023-08-24T06:57:47;10.13;;;6.47;;
16199;SDS011;8207;52.494;4.654;2023-08-24T07:00:12;8.27;;;4.70;;
16199;SDS011;8207;52.494;4.654;2023-08-24T07:02:40;11.95;;;7.22;;
16199;SDS011;8207;52.494;4.654;2023-08-24T07:05:05;8.38;;;5.03;;
16199;SDS011;8207;52.494;4.654;2023-08-24T07:07:30;10.18;;;5.47;;
16199;SDS011;8207;52.494;4.654;2023-08-24T07:09:56;8.40;;;5.55;;
16199;SDS011;8207;52.494;4.654;2023-08-24T07:12:24;10.43;;;6.43;;
16199;SDS011;8207;52.494;4.654;2023-08-24T07:14:49;9.87;;;6.43;;
16199;SDS011;8207;52.494;4.654;2023-08-24T07:17:14;13.50;;;7.60;;
16199;SDS011;8207;52.494;4.654;2023-08-24T07:19:39;9.27;;;5.30;;
16199;SDS011;8207;52.494;4.654;2023-08-24T07:22:04;10.33;;;6.33;;
16199;SDS011;8207;52.494;4.654;2023-08-24T07:24:30;10.23;;;5.93;;
16199;SDS011;8207;52.494;4.654;2023-08-24T07:26:55;12.53;;;6.77;;
16199;SDS011;8207;52.494;4.654;2023-08-24T07:29:20;7.57;;;4.88;;
16199;SDS011;8207;52.494;4.654;2023-08-24T07:31:48;8.73;;;5.38;;
16199;SDS011;8207;52.494;4.654;2023-08-24T07:34:21;9.68;;;6.28;;
16199;SDS011;8207;52.494;4.654;2023-08-24T07:36:49;9.00;;;5.97;;
16199;SDS011;8207;52.494;4.654;2023-08-24T07:39:15;9.43;;;3.90;;
16199;SDS011;8207;52.494;4.654;2023-08-24T07:41:40;8.88;;;5.50;;
16199;SDS011;8207;52.494;4.654;2023-08-24T07:44:06;10.50;;;6.00;;
16199;SDS011;8207;52.494;4.654;2023-08-24T07:46:31;8.20;;;6.32;;
16199;SDS011;8207;52.494;4.654;2023-08-24T07:48:56;8.23;;;4.43;;
16199;SDS011;8207;52.494;4.654;2023-08-24T07:51:21;8.75;;;4.90;;
16199;SDS011;8207;52.494;4.654;2023-08-24T07:53:47;9.65;;;5.75;;
16199;SDS011;8207;52.494;4.654;2023-08-24T07:56:14;8.02;;;4.90;;
16199;SDS011;8207;52.494;4.654;2023-08-24T07:58:39;7.70;;;4.80;;
16199;SDS011;8207;52.494;4.654;2023-08-24T08:01:04;12.40;;;6.57;;
16199;SDS011;8207;52.494;4.654;2023-08-24T08:03:29;11.20;;;5.60;;
16199;SDS011;8207;52.494;4.654;2023-08-24T08:05:55;11.45;;;7.05;;
16199;SDS011;8207;52.494;4.654;2023-08-24T08:08:21;11.63;;;6.32;;
16199;SDS011;8207;52.494;4.654;2023-08-24T08:10:47;8.75;;;5.70;;
16199;SDS011;8207;52.494;4.654;2023-08-24T08:13:12;8.85;;;6.00;;
16199;SDS011;8207;52.494;4.654;2023-08-24T08:15:38;12.95;;;7.30;;
16199;SDS011;8207;52.494;4.654;2023-08-24T08:18:06;11.05;;;6.80;;
16199;SDS011;8207;52.494;4.654;2023-08-24T08:20:31;10.70;;;6.55;;
16199;SDS011;8207;52.494;4.654;2023-08-24T08:22:56;10.57;;;6.32;;
16199;SDS011;8207;52.494;4.654;2023-08-24T08:25:22;9.90;;;4.75;;
16199;SDS011;8207;52.494;4.654;2023-08-24T08:27:47;9.93;;;6.55;;
16199;SDS011;8207;52.494;4.654;2023-08-24T08:30:13;11.20;;;6.25;;
16199;SDS011;8207;52.494;4.654;2023-08-24T08:32:38;6.38;;;4.88;;
16199;SDS011;8207;52.494;4.654;2023-08-24T08:35:03;9.95;;;5.18;;
16199;SDS011;8207;52.494;4.654;2023-08-24T08:37:32;11.38;;;6.82;;
16199;SDS011;8207;52.494;4.654;2023-08-24T08:39:57;10.93;;;6.88;;
16199;SDS011;8207;52.494;4.654;2023-08-24T08:42:23;11.60;;;7.28;;
16199;SDS011;8207;52.494;4.654;2023-08-24T08:44:50;7.43;;;5.03;;
16199;SDS011;8207;52.494;4.654;2023-08-24T08:47:18;7.32;;;4.32;;
16199;SDS011;8207;52.494;4.654;2023-08-24T08:49:44;10.93;;;5.60;;
16199;SDS011;8207;52.494;4.654;2023-08-24T08:52:10;8.80;;;4.80;;
16199;SDS011;8207;52.494;4.654;2023-08-24T08:54:38;9.20;;;6.18;;
16199;SDS011;8207;52.494;4.654;2023-08-24T08:57:03;7.47;;;4.00;;
16199;SDS011;8207;52.494;4.654;2023-08-24T08:59:29;7.07;;;4.40;;
16199;SDS011;8207;52.494;4.654;2023-08-24T09:01:56;7.38;;;4.95;;
16199;SDS011;8207;52.494;4.654;2023-08-24T09:04:22;10.43;;;6.93;;
16199;SDS011;8207;52.494;4.654;2023-08-24T09:06:47;9.45;;;6.47;;
16199;SDS011;8207;52.494;4.654;2023-08-24T09:09:13;10.35;;;5.50;;
16199;SDS011;8207;52.494;4.654;2023-08-24T09:11:39;9.60;;;5.63;;
16199;SDS011;8207;52.494;4.654;2023-08-24T09:14:05;7.68;;;4.82;;
16199;SDS011;8207;52.494;4.654;2023-08-24T09:16:30;12.35;;;7.05;;
16199;SDS011;8207;52.494;4.654;2023-08-24T09:18:55;16.13;;;6.90;;
16199;SDS011;8207;52.494;4.654;2023-08-24T09:21:20;7.97;;;5.07;;
16199;SDS011;8207;52.494;4.654;2023-08-24T09:23:55;6.47;;;4.35;;
16199;SDS011;8207;52.494;4.654;2023-08-24T09:26:27;10.20;;;5.80;;
16199;SDS011;8207;52.494;4.654;2023-08-24T09:28:52;8.88;;;5.50;;
16199;SDS011;8207;52.494;4.654;2023-08-24T09:31:17;12.60;;;8.23;;
16199;SDS011;8207;52.494;4.654;2023-08-24T09:33:43;12.90;;;7.93;;
16199;SDS011;8207;52.494;4.654;2023-08-24T09:36:10;10.70;;;6.70;;
16199;SDS011;8207;52.494;4.654;2023-08-24T09:38:45;11.48;;;6.15;;
16199;SDS011;8207;52.494;4.654;2023-08-24T09:41:10;11.88;;;8.15;;
16199;SDS011;8207;52.494;4.654;2023-08-24T09:43:35;7.30;;;5.60;;
16199;SDS011;8207;52.494;4.654;2023-08-24T09:46:01;8.90;;;5.43;;
16199;SDS011;8207;52.494;4.654;2023-08-24T09:48:29;5.68;;;4.15;;
16199;SDS011;8207;52.494;4.654;2023-08-24T09:50:56;6.75;;;4.32;;
16199;SDS011;8207;52.494;4.654;2023-08-24T09:53:23;6.03;;;4.00;;
16199;SDS011;8207;52.494;4.654;2023-08-24T09:56:01;6.38;;;4.43;;
16199;SDS011;8207;52.494;4.654;2023-08-24T09:58:27;7.32;;;4.75;;
16199;SDS011;8207;52.494;4.654;2023-08-24T10:00:52;7.68;;;4.93;;
16199;SDS011;8207;52.494;4.654;2023-08-24T10:03:19;7.35;;;4.97;;
16199;SDS011;8207;52.494;4.654;2023-08-24T10:05:50;6.15;;;3.90;;
16199;SDS011;8207;52.494;4.654;2023-08-24T10:08:17;10.30;;;5.00;;
16199;SDS011;8207;52.494;4.654;2023-08-24T10:10:43;5.75;;;4.50;;
16199;SDS011;8207;52.494;4.654;2023-08-24T10:13:20;5.80;;;4.18;;
16199;SDS011;8207;52.494;4.654;2023-08-24T10:15:51;5.13;;;3.50;;
16199;SDS011;8207;52.494;4.654;2023-08-24T10:18:18;8.07;;;4.18;;
16199;SDS011;8207;52.494;4.654;2023-08-24T10:23:37;20.05;;;11.88;;
16199;SDS011;8207;52.494;4.654;2023-08-24T10:26:11;19.17;;;11.48;;
16199;SDS011;8207;52.494;4.654;2023-08-24T10:28:45;16.63;;;11.52;;
16199;SDS011;8207;52.494;4.654;2023-08-24T10:31:21;16.05;;;11.27;;
16199;SDS011;8207;52.494;4.654;2023-08-24T10:33:47;12.40;;;9.27;;
16199;SDS011;8207;52.494;4.654;2023-08-24T10:36:13;12.65;;;10.88;;
16199;SDS011;8207;52.494;4.654;2023-08-24T10:38:42;11.70;;;8.98;;
16199;SDS011;8207;52.494;4.654;2023-08-24T10:41:07;12.10;;;9.02;;
16199;SDS011;8207;52.494;4.654;2023-08-24T10:43:48;13.60;;;9.80;;
16199;SDS011;8207;52.494;4.654;2023-08-24T10:46:18;13.77;;;10.45;;
16199;SDS011;8207;52.494;4.654;2023-08-24T10:53:45;22.65;;;12.05;;
16199;SDS011;8207;52.494;4.654;2023-08-24T10:56:11;17.38;;;11.18;;
16199;SDS011;8207;52.494;4.654;2023-08-24T10:58:37;26.08;;;17.88;;
16199;SDS011;8207;52.494;4.654;2023-08-24T11:01:02;26.27;;;16.80;;
16199;SDS011;8207;52.494;4.654;2023-08-24T11:03:30;20.23;;;13.38;;
16199;SDS011;8207;52.494;4.654;2023-08-24T11:05:56;15.40;;;9.38;;
16199;SDS011;8207;52.494;4.654;2023-08-24T11:08:21;16.87;;;12.43;;
16199;SDS011;8207;52.494;4.654;2023-08-24T11:11:06;14.50;;;9.52;;
16199;SDS011;8207;52.494;4.654;2023-08-24T11:13:56;19.45;;;14.15;;
16199;SDS011;8207;52.494;4.654;2023-08-24T11:16:37;18.48;;;13.60;;
16199;SDS011;8207;52.494;4.654;2023-08-24T11:19:03;15.55;;;10.95;;
16199;SDS011;8207;52.494;4.654;2023-08-24T11:21:30;20.63;;;14.18;;
16199;SDS011;8207;52.494;4.654;2023-08-24T11:23:55;21.23;;;14.52;;
16199;SDS011;8207;52.494;4.654;2023-08-24T11:26:20;21.15;;;14.90;;
16199;SDS011;8207;52.494;4.654;2023-08-24T11:28:46;15.55;;;11.32;;
16199;SDS011;8207;52.494;4.654;2023-08-24T11:31:11;17.80;;;13.67;;
16199;SDS011;8207;52.494;4.654;2023-08-24T11:33:36;14.85;;;9.13;;
16199;SDS011;8207;52.494;4.654;2023-08-24T11:36:04;13.17;;;9.13;;
16199;SDS011;8207;52.494;4.654;2023-08-24T11:38:36;16.42;;;12.23;;
16199;SDS011;8207;52.494;4.654;2023-08-24T11:41:10;15.57;;;10.82;;
16199;SDS011;8207;52.494;4.654;2023-08-24T11:43:35;15.43;;;11.60;;
16199;SDS011;8207;52.494;4.654;2023-08-24T11:46:00;11.10;;;8.33;;
16199;SDS011;8207;52.494;4.654;2023-08-24T11:48:25;12.17;;;7.57;;
16199;SDS011;8207;52.494;4.654;2023-08-24T11:50:54;10.15;;;7.40;;
16199;SDS011;8207;52.494;4.654;2023-08-24T11:53:20;11.13;;;7.97;;
16199;SDS011;8207;52.494;4.654;2023-08-24T11:55:45;13.77;;;9.63;;
16199;SDS011;8207;52.494;4.654;2023-08-24T11:58:16;11.83;;;8.83;;
16199;SDS011;8207;52.494;4.654;2023-08-24T12:00:42;14.15;;;10.07;;
16199;SDS011;8207;52.494;4.654;2023-08-24T12:03:07;12.57;;;8.20;;
16199;SDS011;8207;52.494;4.654;2023-08-24T12:05:33;12.88;;;8.00;;
16199;SDS011;8207;52.494;4.654;2023-08-24T12:07:58;17.52;;;12.05;;
16199;SDS011;8207;52.494;4.654;2023-08-24T12:10:23;11.05;;;8.25;;
16199;SDS011;8207;52.494;4.654;2023-08-24T12:12:49;15.57;;;10.85;;
16199;SDS011;8207;52.494;4.654;2023-08-24T12:15:15;15.50;;;10.20;;
16199;SDS011;8207;52.494;4.654;2023-08-24T12:17:45;18.33;;;12.07;;
16199;SDS011;8207;52.494;4.654;2023-08-24T12:20:18;14.82;;;11.77;;
16199;SDS011;8207;52.494;4.654;2023-08-24T12:22:43;14.68;;;10.73;;
16199;SDS011;8207;52.494;4.654;2023-08-24T12:25:08;11.57;;;9.02;;
16199;SDS011;8207;52.494;4.654;2023-08-24T12:27:34;10.23;;;7.57;;
16199;SDS011;8207;52.494;4.654;2023-08-24T12:30:02;12.85;;;9.98;;
16199;SDS011;8207;52.494;4.654;2023-08-24T12:32:41;11.77;;;8.60;;
16199;SDS011;8207;52.494;4.654;2023-08-24T12:35:06;10.35;;;6.50;;
16199;SDS011;8207;52.494;4.654;2023-08-24T12:37:32;11.45;;;8.40;;
16199;SDS011;8207;52.494;4.654;2023-08-24T12:39:57;12.15;;;6.22;;
16199;SDS011;8207;52.494;4.654;2023-08-24T12:42:22;8.82;;;5.97;;
16199;SDS011;8207;52.494;4.654;2023-08-24T12:44:47;9.13;;;5.60;;
16199;SDS011;8207;52.494;4.654;2023-08-24T12:47:13;8.03;;;5.93;;
16199;SDS011;8207;52.494;4.654;2023-08-24T12:49:40;7.53;;;4.97;;
16199;SDS011;8207;52.494;4.654;2023-08-24T12:52:05;9.50;;;5.63;;
16199;SDS011;8207;52.494;4.654;2023-08-24T12:54:31;8.40;;;4.77;;
16199;SDS011;8207;52.494;4.654;2023-08-24T12:56:56;6.80;;;4.60;;
16199;SDS011;8207;52.494;4.654;2023-08-24T12:59:21;6.07;;;3.53;;
16199;SDS011;8207;52.494;4.654;2023-08-24T13:01:47;9.05;;;4.55;;
16199;SDS011;8207;52.494;4.654;2023-08-24T13:04:13;6.68;;;3.60;;
16199;SDS011;8207;52.494;4.654;2023-08-24T13:06:38;6.00;;;4.10;;
16199;SDS011;8207;52.494;4.654;2023-08-24T13:09:03;7.60;;;5.13;;
16199;SDS011;8207;52.494;4.654;2023-08-24T13:11:28;9.73;;;6.10;;
16199;SDS011;8207;52.494;4.654;2023-08-24T13:13:53;6.90;;;5.43;;
16199;SDS011;8207;52.494;4.654;2023-08-24T13:16:19;10.07;;;7.67;;
16199;SDS011;8207;52.494;4.654;2023-08-24T13:18:44;8.38;;;5.40;;
16199;SDS011;8207;52.494;4.654;2023-08-24T13:21:09;12.32;;;9.43;;
16199;SDS011;8207;52.494;4.654;2023-08-24T13:23:34;9.27;;;7.38;;
16199;SDS011;8207;52.494;4.654;2023-08-24T13:26:00;9.40;;;5.78;;
16199;SDS011;8207;52.494;4.654;2023-08-24T13:28:25;6.88;;;5.35;;
16199;SDS011;8207;52.494;4.654;2023-08-24T13:30:51;8.52;;;6.43;;
16199;SDS011;8207;52.494;4.654;2023-08-24T13:33:16;9.18;;;6.32;;
16199;SDS011;8207;52.494;4.654;2023-08-24T13:35:43;10.30;;;7.70;;
16199;SDS011;8207;52.494;4.654;2023-08-24T13:38:08;11.80;;;9.33;;
16199;SDS011;8207;52.494;4.654;2023-08-24T13:40:33;6.43;;;5.40;;
16199;SDS011;8207;52.494;4.654;2023-08-24T13:42:59;7.28;;;5.50;;
16199;SDS011;8207;52.494;4.654;2023-08-24T13:45:24;14.50;;;10.75;;
16199;SDS011;8207;52.494;4.654;2023-08-24T13:47:49;11.27;;;9.10;;
16199;SDS011;8207;52.494;4.654;2023-08-24T13:50:15;10.77;;;9.50;;
16199;SDS011;8207;52.494;4.654;2023-08-24T13:52:40;12.35;;;9.63;;
16199;SDS011;8207;52.494;4.654;2023-08-24T13:55:05;13.97;;;11.37;;
16199;SDS011;8207;52.494;4.654;2023-08-24T13:57:30;15.80;;;9.82;;
16199;SDS011;8207;52.494;4.654;2023-08-24T13:59:56;10.33;;;7.50;;
16199;SDS011;8207;52.494;4.654;2023-08-24T14:02:21;10.07;;;8.65;;
16199;SDS011;8207;52.494;4.654;2023-08-24T14:04:46;8.37;;;6.53;;
16199;SDS011;8207;52.494;4.654;2023-08-24T14:07:11;12.27;;;6.43;;
16199;SDS011;8207;52.494;4.654;2023-08-24T14:09:37;8.02;;;5.97;;
16199;SDS011;8207;52.494;4.654;2023-08-24T14:12:02;5.45;;;4.10;;
16199;SDS011;8207;52.494;4.654;2023-08-24T14:14:27;7.85;;;5.30;;
16199;SDS011;8207;52.494;4.654;2023-08-24T14:16:55;7.93;;;5.80;;
16199;SDS011;8207;52.494;4.654;2023-08-24T14:19:21;10.82;;;7.63;;
16199;SDS011;8207;52.494;4.654;2023-08-24T14:21:46;10.63;;;6.45;;
16199;SDS011;8207;52.494;4.654;2023-08-24T14:24:12;6.10;;;4.88;;
16199;SDS011;8207;52.494;4.654;2023-08-24T14:26:37;6.30;;;4.80;;
16199;SDS011;8207;52.494;4.654;2023-08-24T14:29:04;8.25;;;5.75;;
16199;SDS011;8207;52.494;4.654;2023-08-24T14:31:29;8.40;;;4.57;;
16199;SDS011;8207;52.494;4.654;2023-08-24T14:33:54;8.50;;;5.53;;
16199;SDS011;8207;52.494;4.654;2023-08-24T14:36:20;6.28;;;4.85;;
16199;SDS011;8207;52.494;4.654;2023-08-24T14:38:45;6.60;;;4.63;;
16199;SDS011;8207;52.494;4.654;2023-08-24T14:41:11;9.02;;;5.50;;
16199;SDS011;8207;52.494;4.654;2023-08-24T14:43:37;6.65;;;4.60;;
16199;SDS011;8207;52.494;4.654;2023-08-24T14:46:02;6.35;;;4.35;;
16199;SDS011;8207;52.494;4.654;2023-08-24T14:48:28;5.90;;;4.68;;
16199;SDS011;8207;52.494;4.654;2023-08-24T14:50:53;7.68;;;5.78;;
16199;SDS011;8207;52.494;4.654;2023-08-24T14:53:19;6.63;;;4.43;;
16199;SDS011;8207;52.494;4.654;2023-08-24T14:55:44;8.35;;;5.97;;
16199;SDS011;8207;52.494;4.654;2023-08-24T14:58:09;10.40;;;7.30;;
16199;SDS011;8207;52.494;4.654;2023-08-24T15:00:34;9.77;;;7.20;;